Kinsey, Montana
Current Conditions -  °F | °C
As of 2:53 AM on Thursday 29 Jan 2015 (Local Time) from KMLS Reporting Station
Clear Clear  
Wind Chill: 16°   Ceiling: Unl
Heat Index: 24°   Visibility: 10mi
Dew Point: 22°   Wind: 7mph
Humidity: 91%   Direction: 250°WSW
Pressure: 30.44"   Gusts: NA
Location:  46.57°N, 105.65°W
Report Text: KMLS 290953Z AUTO 25006KT 10SM CLR M04/M06 A3044 RMK AO2 SLP338 T10441056
Loading
Personal Weather Stations






























Interactive Weather Map New forecast layout! Learn more

10-Day Weather Forecast

Advertisements
Track Severe Weather on mobile